Time;durP1;ratioP1;P1;durP2;ratioP2;P2;SDS_P1;SDS_P2;PMS_P1;PMS_P2;Temp;Humidity;BMP_temperature;BMP_pressure;BME280_temperature;BME280_humidity;BME280_pressure;Samples;Min_cycle;Max_cycle;Signal;HPM_P1;HPM_P2
2023/10/27 00:02:46;;;;;;;11.37;4.00;;;;;14.10;94884.00;;;;5066845;28;20223;-88
2023/10/27 00:05:35;;;;;;;7.63;2.80;;;;;14.30;94880.00;;;;5066283;28;20200;-88
2023/10/27 00:08:24;;;;;;;9.67;3.57;;;;;14.30;94872.00;;;;5063841;28;20207;-88
2023/10/27 00:11:13;;;;;;;7.80;2.87;;;;;14.40;94876.00;;;;5062060;28;20204;-87
2023/10/27 00:14:03;;;;;;;6.00;2.33;;;;;14.40;94873.00;;;;5069001;28;20589;-87
2023/10/27 00:16:54;;;;;;;9.90;3.90;;;;;14.30;94860.00;;;;5067122;28;20711;-88
2023/10/27 00:19:43;;;;;;;11.33;4.20;;;;;14.20;94856.00;;;;5067573;28;20203;-87
2023/10/27 00:22:33;;;;;;;5.87;2.23;;;;;14.30;94860.00;;;;5063216;28;20235;-87
2023/10/27 00:25:22;;;;;;;5.60;2.07;;;;;14.20;94864.00;;;;5061670;28;20624;-87
2023/10/27 00:28:11;;;;;;;6.87;2.47;;;;;14.40;94863.00;;;;5066937;28;20680;-88
2023/10/27 00:31:00;;;;;;;6.40;2.40;;;;;14.60;94870.00;;;;5063440;28;20241;-87
2023/10/27 00:33:51;;;;;;;10.43;3.73;;;;;14.60;94854.00;;;;5066080;28;20226;-88
2023/10/27 00:36:40;;;;;;;13.73;4.83;;;;;14.60;94842.00;;;;5062501;28;20200;-87
2023/10/27 00:39:29;;;;;;;5.60;2.13;;;;;14.70;94846.00;;;;5066976;28;20210;-88
2023/10/27 00:42:18;;;;;;;7.43;2.70;;;;;14.40;94835.00;;;;5062695;28;20196;-87
2023/10/27 00:45:08;;;;;;;8.87;3.13;;;;;14.40;94828.00;;;;5067534;28;20203;-87
2023/10/27 00:47:58;;;;;;;7.20;2.67;;;;;14.40;94815.00;;;;5066092;28;20204;-89
2023/10/27 00:50:49;;;;;;;10.37;3.77;;;;;14.40;94816.00;;;;5086157;28;20207;-89
2023/10/27 00:53:39;;;;;;;7.10;2.53;;;;;14.40;94811.00;;;;5085836;28;20223;-88
2023/10/27 00:56:29;;;;;;;7.20;2.57;;;;;14.40;94813.00;;;;5062218;28;20203;-87
2023/10/27 00:59:18;;;;;;;6.43;2.37;;;;;14.40;94801.00;;;;5062421;28;20196;-87
2023/10/27 01:02:07;;;;;;;7.43;2.60;;;;;14.30;94800.00;;;;5068311;28;20212;-87
2023/10/27 01:04:56;;;;;;;7.03;2.60;;;;;14.50;94786.00;;;;5066544;28;20195;-87
2023/10/27 01:07:47;;;;;;;11.27;4.00;;;;;14.40;94775.00;;;;5068043;28;20279;-87
2023/10/27 01:10:36;;;;;;;6.37;2.30;;;;;14.40;94780.00;;;;5062214;28;20723;-88
2023/10/27 01:13:25;;;;;;;4.60;1.73;;;;;14.20;94780.00;;;;5065335;28;20402;-88
2023/10/27 01:16:14;;;;;;;12.23;4.30;;;;;14.20;94781.00;;;;5061858;28;20273;-88
2023/10/27 01:19:03;;;;;;;4.37;1.67;;;;;14.10;94773.00;;;;5067428;28;20204;-88
2023/10/27 01:21:52;;;;;;;11.83;4.27;;;;;14.20;94767.00;;;;5066022;28;20208;-88
2023/10/27 01:24:43;;;;;;;13.30;4.73;;;;;14.40;94769.00;;;;5066290;28;20216;-87
2023/10/27 01:27:32;;;;;;;5.93;2.13;;;;;14.40;94755.00;;;;5063687;28;20203;-87
2023/10/27 01:30:21;;;;;;;6.27;2.33;;;;;14.20;94757.00;;;;5061371;28;20200;-87
2023/10/27 01:33:10;;;;;;;6.73;2.57;;;;;14.40;94739.00;;;;5066182;28;20238;-87
2023/10/27 01:35:59;;;;;;;6.70;2.47;;;;;14.60;94738.00;;;;5065266;28;20251;-87
2023/10/27 01:38:48;;;;;;;10.00;3.70;;;;;14.70;94723.00;;;;5067987;28;20222;-87
2023/10/27 01:41:38;;;;;;;7.00;2.53;;;;;14.70;94709.00;;;;5067370;28;20216;-87
2023/10/27 01:44:28;;;;;;;5.47;2.00;;;;;14.80;94695.00;;;;5067226;28;20239;-87
2023/10/27 01:47:17;;;;;;;5.13;1.97;;;;;14.50;94692.00;;;;5062924;28;20197;-87
2023/10/27 01:50:07;;;;;;;5.73;2.20;;;;;14.30;94678.00;;;;5067544;28;20784;-88
2023/10/27 01:52:56;;;;;;;6.87;2.37;;;;;14.60;94678.00;;;;5067179;28;20224;-88
2023/10/27 01:55:45;;;;;;;10.50;3.77;;;;;14.60;94669.00;;;;5065760;28;20224;-87
2023/10/27 01:58:39;;;;;;;4.60;1.83;;;;;14.70;94654.00;;;;5064057;28;20212;-87
2023/10/27 02:01:28;;;;;;;12.40;4.60;;;;;14.80;94647.00;;;;5073355;22;20250;-83
2023/10/27 02:04:20;;;;;;;5.93;2.10;;;;;14.60;94656.00;;;;5080591;28;20210;-81
2023/10/27 02:07:09;;;;;;;4.77;1.83;;;;;14.40;94660.00;;;;5064659;28;20192;-81
2023/10/27 02:09:59;;;;;;;5.17;1.87;;;;;14.20;94644.00;;;;5065900;28;20207;-83
2023/10/27 02:12:48;;;;;;;10.67;3.87;;;;;14.40;94639.00;;;;5066795;28;20204;-83
2023/10/27 02:15:38;;;;;;;6.33;2.37;;;;;14.50;94637.00;;;;5069667;28;20719;-82
2023/10/27 02:18:27;;;;;;;6.53;2.37;;;;;14.60;94623.00;;;;5070759;28;20208;-80
2023/10/27 02:21:16;;;;;;;6.60;2.47;;;;;14.70;94606.00;;;;5068245;28;20598;-83
2023/10/27 02:24:06;;;;;;;6.53;2.33;;;;;14.80;94590.00;;;;5067534;28;20207;-83
2023/10/27 02:26:55;;;;;;;10.90;4.03;;;;;14.80;94585.00;;;;5068632;28;20204;-82
2023/10/27 02:29:44;;;;;;;12.40;4.43;;;;;14.60;94566.00;;;;5068694;28;20204;-83
2023/10/27 02:32:34;;;;;;;6.87;2.43;;;;;14.40;94564.00;;;;5066407;28;20215;-83
2023/10/27 02:35:25;;;;;;;6.50;2.43;;;;;14.20;94563.00;;;;5064545;28;20239;-81
2023/10/27 02:38:14;;;;;;;5.87;2.27;;;;;14.40;94553.00;;;;5068575;28;20207;-82
2023/10/27 02:41:08;;;;;;;7.47;2.67;;;;;14.70;94557.00;;;;5067636;28;20211;-82
2023/10/27 02:43:58;;;;;;;6.70;2.43;;;;;14.50;94559.00;;;;5069065;28;20208;-83
2023/10/27 02:46:47;;;;;;;8.43;2.93;;;;;14.50;94552.00;;;;5068461;28;20224;-83
2023/10/27 02:49:38;;;;;;;6.17;2.30;;;;;14.70;94543.00;;;;5071197;28;20208;-83
2023/10/27 02:52:27;;;;;;;6.10;2.33;;;;;14.80;94537.00;;;;5069300;28;20208;-82
2023/10/27 02:55:16;;;;;;;7.53;2.80;;;;;14.80;94533.00;;;;5063902;28;20228;-82
2023/10/27 02:58:05;;;;;;;5.97;2.13;;;;;14.70;94521.00;;;;5069989;28;20679;-81
2023/10/27 03:00:54;;;;;;;13.40;4.93;;;;;14.80;94514.00;;;;5067538;28;20200;-81
2023/10/27 03:03:44;;;;;;;12.07;4.20;;;;;14.70;94504.00;;;;5070857;28;20722;-83
2023/10/27 03:06:35;;;;;;;10.37;3.50;;;;;14.50;94510.00;;;;5065423;28;20227;-82
2023/10/27 03:09:24;;;;;;;7.10;2.50;;;;;14.30;94507.00;;;;5064511;28;20204;-81
2023/10/27 03:12:14;;;;;;;6.23;2.20;;;;;14.40;94513.00;;;;5067774;28;20206;-81
2023/10/27 03:15:03;;;;;;;5.90;2.07;;;;;14.40;94502.00;;;;5069207;28;20220;-83
2023/10/27 03:17:52;;;;;;;11.67;4.13;;;;;14.70;94492.00;;;;5067905;28;20212;-81
2023/10/27 03:20:41;;;;;;;10.40;3.53;;;;;14.80;94492.00;;;;5067887;28;20200;-84
2023/10/27 03:23:32;;;;;;;5.70;2.10;;;;;14.80;94469.00;;;;5064090;28;20564;-82
2023/10/27 03:26:21;;;;;;;8.90;3.03;;;;;14.90;94458.00;;;;5082503;28;20216;-82
2023/10/27 03:29:10;;;;;;;5.07;1.93;;;;;14.70;94462.00;;;;5081983;28;20196;-84
2023/10/27 03:32:00;;;;;;;6.03;2.23;;;;;14.60;94478.00;;;;5069535;28;20205;-84
2023/10/27 03:34:49;;;;;;;11.33;3.97;;;;;14.50;94472.00;;;;5067709;28;20607;-83
2023/10/27 03:37:38;;;;;;;5.53;2.07;;;;;14.50;94478.00;;;;5068871;28;20212;-84
2023/10/27 03:40:28;;;;;;;7.87;2.87;;;;;14.70;94475.00;;;;5064085;28;20206;-83
2023/10/27 03:43:17;;;;;;;6.20;2.27;;;;;14.90;94465.00;;;;5069942;28;20582;-83
2023/10/27 03:46:07;;;;;;;6.67;2.43;;;;;14.60;94455.00;;;;5069993;28;20235;-84
2023/10/27 03:48:58;;;;;;;11.37;4.23;;;;;14.70;94443.00;;;;5069213;28;20563;-83
2023/10/27 03:51:47;;;;;;;6.93;2.60;;;;;14.60;94451.00;;;;5068672;28;20675;-82
2023/10/27 03:54:36;;;;;;;6.80;2.63;;;;;14.70;94445.00;;;;5069668;28;20586;-83
2023/10/27 03:57:26;;;;;;;6.43;2.30;;;;;14.80;94441.00;;;;5065263;28;20231;-82
2023/10/27 04:00:16;;;;;;;5.80;2.10;;;;;14.90;94436.00;;;;5064478;28;20203;-83
2023/10/27 04:03:05;;;;;;;6.33;2.40;;;;;14.80;94428.00;;;;5068515;28;20207;-82
2023/10/27 04:05:54;;;;;;;11.10;4.07;;;;;14.70;94420.00;;;;5067344;28;20231;-84
2023/10/27 04:08:43;;;;;;;11.07;3.87;;;;;14.70;94419.00;;;;5067016;28;20214;-84
2023/10/27 04:11:32;;;;;;;6.80;2.50;;;;;14.70;94404.00;;;;5063862;28;20211;-84
2023/10/27 04:14:23;;;;;;;6.70;2.43;;;;;14.50;94407.00;;;;5069686;28;20584;-83
2023/10/27 04:17:12;;;;;;;7.07;2.60;;;;;14.50;94401.00;;;;5066239;28;20220;-83
2023/10/27 04:20:01;;;;;;;6.47;2.43;;;;;14.60;94392.00;;;;5068670;28;20207;-84
2023/10/27 04:22:50;;;;;;;10.67;3.80;;;;;14.60;94384.00;;;;5066902;28;20203;-83
2023/10/27 04:25:39;;;;;;;7.17;2.67;;;;;14.90;94366.00;;;;5068313;28;20235;-84
2023/10/27 04:28:28;;;;;;;7.50;2.70;;;;;14.90;94364.00;;;;5068346;28;20219;-83
2023/10/27 04:31:19;;;;;;;5.57;1.90;;;;;14.90;94344.00;;;;5064163;28;20204;-82
2023/10/27 04:34:08;;;;;;;5.60;1.93;;;;;14.70;94329.00;;;;5069885;28;20200;-83
2023/10/27 04:36:57;;;;;;;9.00;3.37;;;;;14.70;94314.00;;;;5068091;28;20235;-83
2023/10/27 04:39:46;;;;;;;11.83;4.10;;;;;14.50;94317.00;;;;5067768;28;20450;-83
2023/10/27 04:42:37;;;;;;;6.43;2.37;;;;;14.20;94315.00;;;;5068096;28;20681;-83
2023/10/27 04:45:26;;;;;;;6.77;2.40;;;;;14.30;94302.00;;;;5063294;28;20227;-83
2023/10/27 04:48:16;;;;;;;5.67;2.10;;;;;14.50;94303.00;;;;5065831;28;20303;-83
2023/10/27 04:51:05;;;;;;;9.40;3.27;;;;;14.60;94284.00;;;;5069145;28;20580;-83
2023/10/27 04:53:54;;;;;;;11.33;4.03;;;;;14.70;94281.00;;;;5067394;28;20211;-82
2023/10/27 04:56:44;;;;;;;12.37;4.37;;;;;14.70;94279.00;;;;5066035;28;20243;-82
2023/10/27 04:59:33;;;;;;;2.20;0.90;;;;;14.70;94271.00;;;;5060179;28;20625;-83
2023/10/27 05:02:22;;;;;;;5.37;1.97;;;;;14.50;94281.00;;;;5064083;28;20214;-82
2023/10/27 05:05:14;;;;;;;7.90;2.97;;;;;14.50;94273.00;;;;5063399;28;20227;-83
2023/10/27 05:08:03;;;;;;;6.87;2.40;;;;;14.60;94282.00;;;;5066062;28;20691;-81
2023/10/27 05:10:52;;;;;;;10.47;3.80;;;;;14.60;94282.00;;;;5066519;28;20322;-83
2023/10/27 05:13:41;;;;;;;5.57;2.03;;;;;14.60;94273.00;;;;5068224;28;20229;-82
2023/10/27 05:16:30;;;;;;;10.03;3.53;;;;;14.70;94276.00;;;;5062009;28;20610;-82
2023/10/27 05:19:19;;;;;;;6.53;2.33;;;;;14.80;94255.00;;;;5060836;28;20204;-83
2023/10/27 05:22:09;;;;;;;6.07;2.13;;;;;14.80;94256.00;;;;5066362;28;20737;-81
2023/10/27 05:25:01;;;;;;;9.27;3.60;;;;;14.90;94248.00;;;;5068554;28;20219;-82
2023/10/27 05:27:50;;;;;;;10.53;3.80;;;;;14.90;94257.00;;;;5066586;28;20207;-82
2023/10/27 05:30:43;;;;;;;6.40;2.30;;;;;14.90;94242.00;;;;5066104;28;20650;-83
2023/10/27 05:33:32;;;;;;;6.60;2.33;;;;;14.80;94230.00;;;;5063188;28;20596;-83
2023/10/27 05:36:21;;;;;;;8.27;3.03;;;;;14.90;94227.00;;;;5063374;28;20220;-84
2023/10/27 05:39:16;;;;;;;6.00;2.20;;;;;14.80;94220.00;;;;5059199;28;20204;-83
2023/10/27 05:42:05;;;;;;;7.20;2.57;;;;;14.60;94215.00;;;;5065779;28;20200;-81
2023/10/27 05:44:54;;;;;;;10.57;3.90;;;;;14.40;94217.00;;;;5065232;28;20727;-83
2023/10/27 05:47:43;;;;;;;10.23;3.63;;;;;14.40;94220.00;;;;5065462;28;20588;-83
2023/10/27 05:50:32;;;;;;;6.63;2.33;;;;;14.70;94214.00;;;;5060105;28;20200;-81
2023/10/27 05:53:21;;;;;;;8.23;3.10;;;;;14.90;94214.00;;;;5070061;28;20570;-82
2023/10/27 05:56:12;;;;;;;8.30;3.13;;;;;14.90;94213.00;;;;5067381;28;20232;-82
2023/10/27 05:59:01;;;;;;;8.00;2.90;;;;;15.00;94217.00;;;;5064782;28;20231;-83
2023/10/27 06:01:53;;;;;;;11.83;4.27;;;;;15.00;94211.00;;;;5067093;28;20212;-82
2023/10/27 06:04:50;;;;;;;18.63;6.47;;;;;15.10;94219.00;;;;5054217;28;20216;-83
2023/10/27 06:07:39;;;;;;;6.50;2.40;;;;;15.10;94211.00;;;;5061151;28;20685;-83
2023/10/27 06:10:28;;;;;;;8.07;2.83;;;;;15.10;94213.00;;;;5059137;28;20673;-83
2023/10/27 06:13:18;;;;;;;7.57;2.77;;;;;14.90;94227.00;;;;5067036;28;20673;-81
2023/10/27 06:16:08;;;;;;;6.10;2.13;;;;;14.80;94220.00;;;;5063756;28;20228;-83
2023/10/27 06:18:57;;;;;;;15.57;5.70;;;;;14.80;94226.00;;;;5054619;28;20228;-84
2023/10/27 06:21:47;;;;;;;8.90;3.10;;;;;14.80;94234.00;;;;5066494;28;20207;-84
2023/10/27 06:24:36;;;;;;;6.37;2.33;;;;;15.00;94224.00;;;;5065538;28;20211;-83
2023/10/27 06:27:26;;;;;;;10.10;3.77;;;;;14.70;94235.00;;;;5063562;28;20207;-82
2023/10/27 06:30:16;;;;;;;7.13;2.53;;;;;14.70;94222.00;;;;5061146;28;20200;-83
2023/10/27 06:33:06;;;;;;;12.97;4.60;;;;;14.60;94224.00;;;;5060620;28;20206;-84
2023/10/27 06:35:56;;;;;;;15.40;5.47;;;;;14.90;94220.00;;;;5067534;28;20305;-84
2023/10/27 06:38:45;;;;;;;13.20;4.63;;;;;15.00;94205.00;;;;5066132;28;20238;-82
2023/10/27 06:41:34;;;;;;;6.93;2.43;;;;;15.10;94183.00;;;;5053862;28;20211;-83
2023/10/27 06:44:25;;;;;;;6.13;2.23;;;;;15.00;94192.00;;;;5063520;28;20215;-84
2023/10/27 06:47:18;;;;;;;8.00;2.80;;;;;14.60;94200.00;;;;5061146;28;20206;-83
2023/10/27 06:50:09;;;;;;;11.53;4.07;;;;;14.40;94216.00;;;;5061721;28;20259;-82
2023/10/27 06:52:58;;;;;;;12.17;4.47;;;;;14.40;94217.00;;;;5065504;28;20219;-82
2023/10/27 06:55:48;;;;;;;26.23;9.33;;;;;14.70;94218.00;;;;5060440;28;20605;-83
2023/10/27 06:58:37;;;;;;;7.93;2.77;;;;;15.00;94236.00;;;;5067609;28;20264;-82
2023/10/27 07:01:26;;;;;;;5.77;2.17;;;;;14.90;94243.00;;;;5057231;28;20689;-83
2023/10/27 07:04:17;;;;;;;7.53;2.70;;;;;15.10;94257.00;;;;5056348;28;20207;-83
2023/10/27 07:07:06;;;;;;;6.20;2.37;;;;;15.10;94255.00;;;;5062858;28;20638;-85
2023/10/27 07:09:59;;;;;;;11.67;4.53;;;;;15.10;94256.00;;;;5065809;28;20221;-85
2023/10/27 07:12:48;;;;;;;18.30;6.50;;;;;15.10;94253.00;;;;5061174;28;20252;-84
2023/10/27 07:15:37;;;;;;;5.70;2.20;;;;;15.10;94244.00;;;;5070660;28;20825;-84
2023/10/27 07:18:26;;;;;;;10.97;3.77;;;;;15.10;94238.00;;;;5061057;28;20620;-84
2023/10/27 07:21:16;;;;;;;13.27;4.63;;;;;15.10;94246.00;;;;5073465;28;20212;-85
2023/10/27 07:24:06;;;;;;;5.60;2.03;;;;;14.80;94272.00;;;;5080930;28;20233;-83
2023/10/27 07:26:55;;;;;;;12.83;4.70;;;;;14.80;94286.00;;;;5071557;28;20607;-86
2023/10/27 07:29:46;;;;;;;10.23;3.57;;;;;14.60;94314.00;;;;5068728;28;20691;-86
2023/10/27 07:32:35;;;;;;;3.80;1.40;;;;;14.40;94334.00;;;;5070894;28;20216;-85
2023/10/27 07:35:24;;;;;;;10.77;3.90;;;;;15.00;94345.00;;;;5062615;28;20239;-85
2023/10/27 07:38:15;;;;;;;6.00;2.23;;;;;15.10;94330.00;;;;5069608;28;20231;-86
2023/10/27 07:41:04;;;;;;;8.87;3.17;;;;;15.10;94292.00;;;;5072185;28;20192;-87
2023/10/27 07:43:53;;;;;;;12.30;4.73;;;;;15.20;94297.00;;;;5071949;28;20965;-87
2023/10/27 07:46:42;;;;;;;11.30;4.07;;;;;15.30;94323.00;;;;5075298;28;20740;-88
2023/10/27 07:49:31;;;;;;;6.53;2.47;;;;;15.30;94283.00;;;;5080625;28;20610;-86
2023/10/27 07:52:20;;;;;;;5.90;2.07;;;;;15.10;94275.00;;;;5081774;28;20204;-86
2023/10/27 07:55:11;;;;;;;8.23;2.83;;;;;15.30;94277.00;;;;5072592;28;20251;-85
2023/10/27 07:58:00;;;;;;;11.97;4.57;;;;;14.90;94261.00;;;;5079330;28;20591;-86
2023/10/27 08:00:49;;;;;;;13.93;4.97;;;;;14.90;94300.00;;;;5077033;28;20215;-85
2023/10/27 08:03:38;;;;;;;6.83;2.53;;;;;15.30;94291.00;;;;5078901;28;20204;-85
2023/10/27 08:06:28;;;;;;;13.97;4.70;;;;;15.40;94297.00;;;;5074458;28;20555;-85
2023/10/27 08:09:17;;;;;;;8.20;2.97;;;;;15.50;94297.00;;;;5078210;28;20203;-85
2023/10/27 08:12:08;;;;;;;8.03;2.90;;;;;15.70;94295.00;;;;5078161;28;20211;-84
2023/10/27 08:15:04;;;;;;;13.10;4.70;;;;;15.30;94312.00;;;;5076367;28;20306;-86
2023/10/27 08:17:53;;;;;;;12.90;4.43;;;;;15.20;94318.00;;;;5076578;28;20608;-85
2023/10/27 08:20:43;;;;;;;5.20;1.90;;;;;15.30;94316.00;;;;5075515;28;20215;-84
2023/10/27 08:23:32;;;;;;;6.90;2.57;;;;;15.60;94313.00;;;;5064796;28;20201;-85
2023/10/27 08:26:21;;;;;;;15.57;5.63;;;;;15.80;94291.00;;;;5065024;28;20228;-85
2023/10/27 08:29:11;;;;;;;8.40;3.00;;;;;15.80;94279.00;;;;5076937;28;20199;-85
2023/10/27 08:32:00;;;;;;;12.47;4.60;;;;;15.80;94311.00;;;;5059405;28;20672;-84
2023/10/27 08:34:49;;;;;;;11.57;4.10;;;;;15.60;94338.00;;;;5067706;28;20224;-84
2023/10/27 08:37:38;;;;;;;8.70;3.07;;;;;15.70;94353.00;;;;5061406;28;20211;-84
2023/10/27 08:40:28;;;;;;;5.50;2.07;;;;;15.70;94376.00;;;;5073848;28;20207;-85
2023/10/27 08:43:17;;;;;;;4.63;1.77;;;;;15.60;94408.00;;;;5071903;28;20688;-84
2023/10/27 08:46:09;;;;;;;8.93;3.27;;;;;15.40;94421.00;;;;5073043;28;20691;-84
2023/10/27 08:49:00;;;;;;;11.63;4.47;;;;;15.70;94446.00;;;;5067383;28;20219;-85
2023/10/27 08:51:50;;;;;;;13.07;4.57;;;;;15.70;94465.00;;;;5057899;28;20204;-84
2023/10/27 08:54:41;;;;;;;6.47;2.40;;;;;15.60;94500.00;;;;5066542;28;20395;-84
2023/10/27 08:57:30;;;;;;;5.47;2.10;;;;;15.50;94534.00;;;;5065202;28;20212;-85
2023/10/27 09:00:20;;;;;;;11.40;4.03;;;;;15.50;94555.00;;;;5069386;28;20227;-85
2023/10/27 09:03:17;;;;;;;7.13;2.60;;;;;15.20;94556.00;;;;5061041;28;20210;-85
2023/10/27 09:06:07;;;;;;;8.47;2.97;;;;;15.50;94550.00;;;;5071303;28;20212;-86
2023/10/27 09:08:56;;;;;;;15.60;5.60;;;;;15.50;94528.00;;;;5069751;28;20679;-85
2023/10/27 09:11:48;;;;;;;7.60;2.83;;;;;15.50;94501.00;;;;5066471;28;20207;-86
2023/10/27 09:14:39;;;;;;;6.30;2.20;;;;;15.60;94456.00;;;;5064145;28;20207;-85
2023/10/27 09:17:32;;;;;;;17.53;6.00;;;;;15.40;94452.00;;;;5061923;28;20253;-84
2023/10/27 09:20:24;;;;;;;5.20;1.77;;;;;15.10;94458.00;;;;5063655;28;20299;-85
2023/10/27 09:23:13;;;;;;;7.87;2.90;;;;;15.20;94492.00;;;;5067865;28;20869;-85
2023/10/27 09:26:03;;;;;;;10.23;4.00;;;;;15.40;94510.00;;;;5067022;28;20697;-84
2023/10/27 09:29:02;;;;;;;11.83;4.27;;;;;15.50;94485.00;;;;5068391;28;20207;-85
2023/10/27 09:31:51;;;;;;;14.30;5.10;;;;;15.50;94480.00;;;;5067958;28;20211;-84
2023/10/27 09:34:40;;;;;;;7.40;2.77;;;;;15.50;94450.00;;;;5067800;28;20208;-85
2023/10/27 09:37:32;;;;;;;8.07;2.90;;;;;15.30;94447.00;;;;5067471;28;20237;-84
2023/10/27 09:40:21;;;;;;;7.67;2.87;;;;;15.50;94443.00;;;;5073031;28;20220;-84
2023/10/27 09:43:15;;;;;;;6.50;2.40;;;;;15.50;94427.00;;;;5073367;28;20204;-85
2023/10/27 09:46:06;;;;;;;6.67;2.43;;;;;15.60;94410.00;;;;5067063;28;20239;-86
2023/10/27 09:48:58;;;;;;;9.37;3.43;;;;;15.60;94406.00;;;;5067138;28;20210;-85
2023/10/27 09:51:59;;;;;;;9.93;3.70;;;;;15.70;94413.00;;;;5074576;28;20204;-84
2023/10/27 09:54:51;;;;;;;10.57;3.83;;;;;15.50;94405.00;;;;5073588;28;20624;-85
2023/10/27 09:57:44;;;;;;;6.03;2.30;;;;;15.70;94424.00;;;;5067730;28;20237;-84
2023/10/27 10:00:33;;;;;;;3.77;1.47;;;;;15.40;94444.00;;;;5072384;28;20219;-85
2023/10/27 10:03:27;;;;;;;6.00;2.20;;;;;15.50;94474.00;;;;5066696;28;20204;-85
2023/10/27 10:06:17;;;;;;;9.73;3.50;;;;;15.20;94491.00;;;;5065466;28;20225;-85
2023/10/27 10:09:08;;;;;;;10.63;3.70;;;;;15.30;94512.00;;;;5072011;28;20223;-86
2023/10/27 10:11:59;;;;;;;10.77;3.87;;;;;15.40;94509.00;;;;5066159;28;20207;-85
2023/10/27 10:14:50;;;;;;;10.93;3.87;;;;;15.50;94496.00;;;;5067343;28;20238;-86
2023/10/27 10:17:39;;;;;;;14.33;5.00;;;;;15.50;94483.00;;;;5069638;28;20211;-86
2023/10/27 10:20:56;;;;;;;9.17;3.23;;;;;15.90;94444.00;;;;5060287;28;20224;-85
2023/10/27 10:24:18;;;;;;;17.40;6.07;;;;;16.30;94479.00;;;;5059988;28;20261;-87
2023/10/27 10:27:13;;;;;;;11.07;3.90;;;;;16.50;94496.00;;;;5067831;28;20661;-86
2023/10/27 10:30:20;;;;;;;17.57;6.23;;;;;16.80;94482.00;;;;5069534;28;20196;-85
2023/10/27 10:33:19;;;;;;;6.03;2.27;;;;;17.10;94471.00;;;;5071619;28;20700;-86
2023/10/27 10:36:25;;;;;;;8.10;2.90;;;;;17.20;94478.00;;;;5072995;28;20301;-86
2023/10/27 10:39:14;;;;;;;6.63;2.37;;;;;17.50;94466.00;;;;5069221;28;20235;-85
2023/10/27 10:42:03;;;;;;;15.70;5.43;;;;;17.80;94464.00;;;;5069675;28;20204;-86
2023/10/27 10:45:01;;;;;;;17.07;5.80;;;;;17.60;94469.00;;;;5072977;28;20235;-85
2023/10/27 10:47:55;;;;;;;15.07;5.30;;;;;17.60;94458.00;;;;5068611;28;20560;-86
2023/10/27 10:50:45;;;;;;;8.10;2.83;;;;;17.60;94446.00;;;;5071896;28;20199;-86
2023/10/27 10:53:34;;;;;;;7.03;2.50;;;;;17.90;94422.00;;;;5072249;28;20714;-85
2023/10/27 10:56:24;;;;;;;9.53;3.27;;;;;17.80;94427.00;;;;5075649;28;20695;-87
2023/10/27 10:59:21;;;;;;;10.53;3.70;;;;;17.90;94448.00;;;;5073423;28;20704;-85
2023/10/27 11:02:11;;;;;;;7.17;2.60;;;;;17.40;94461.00;;;;5072516;28;20208;-86
2023/10/27 11:05:00;;;;;;;11.60;4.03;;;;;17.60;94475.00;;;;5067477;28;20223;-86
2023/10/27 11:07:50;;;;;;;9.23;3.13;;;;;17.80;94485.00;;;;5067986;28;20215;-86
2023/10/27 11:10:39;;;;;;;8.00;2.87;;;;;17.40;94504.00;;;;5069506;28;20215;-85
2023/10/27 11:13:28;;;;;;;5.80;2.20;;;;;16.50;94500.00;;;;5067870;28;20604;-85
2023/10/27 11:16:19;;;;;;;8.77;3.07;;;;;17.00;94502.00;;;;5072498;28;20228;-86
2023/10/27 11:19:16;;;;;;;9.43;3.23;;;;;17.70;94508.00;;;;5067737;28;20204;-86
2023/10/27 11:22:05;;;;;;;9.13;3.17;;;;;18.00;94507.00;;;;5071549;28;20220;-86
2023/10/27 11:24:55;;;;;;;14.17;4.90;;;;;18.20;94516.00;;;;5069968;28;20231;-85
2023/10/27 11:27:44;;;;;;;7.57;2.60;;;;;18.60;94532.00;;;;5070975;28;20200;-86
2023/10/27 11:30:33;;;;;;;12.77;4.33;;;;;18.80;94545.00;;;;5070453;28;20200;-85
2023/10/27 11:33:22;;;;;;;7.83;2.73;;;;;19.00;94554.00;;;;5074786;28;20215;-85
2023/10/27 11:36:15;;;;;;;12.47;4.20;;;;;19.00;94536.00;;;;5075941;28;20220;-87
2023/10/27 11:39:15;;;;;;;15.80;5.37;;;;;19.70;94511.00;;;;5075704;28;20227;-87
2023/10/27 11:42:04;;;;;;;10.60;3.60;;;;;20.00;94538.00;;;;5074818;28;20200;-87
2023/10/27 11:44:53;;;;;;;15.53;5.03;;;;;19.80;94523.00;;;;5071209;28;20224;-87
2023/10/27 11:47:42;;;;;;;5.70;1.93;;;;;20.20;94496.00;;;;5073065;28;20211;-87
2023/10/27 11:50:31;;;;;;;8.23;2.77;;;;;21.80;94505.00;;;;5075720;28;20204;-87
2023/10/27 11:53:23;;;;;;;8.67;3.33;;;;;23.00;94517.00;;;;5076794;28;20350;-88
2023/10/27 11:56:12;;;;;;;17.50;5.57;;;;;23.60;94527.00;;;;5076905;28;20219;-88
2023/10/27 11:59:02;;;;;;;20.70;6.97;;;;;24.10;94548.00;;;;5073208;28;20204;-87
2023/10/27 12:01:51;;;;;;;27.27;11.73;;;;;24.40;94553.00;;;;5069723;28;20223;-88
2023/10/27 12:04:39;;;;;;;;;;;;;24.30;94611.00;;;;5073601;28;20043;-85
2023/10/27 12:07:28;;;;;;;;;;;;;23.30;94616.00;;;;5074826;28;19928;-87
2023/10/27 12:10:19;;;;;;;;;;;;;23.30;94623.00;;;;5072773;28;19928;-85
2023/10/27 12:13:08;;;;;;;12.57;5.17;;;;;22.70;94639.00;;;;5073602;28;20209;-87
2023/10/27 12:15:57;;;;;;;17.80;6.23;;;;;22.00;94637.00;;;;5071913;28;20720;-88
2023/10/27 12:18:46;;;;;;;11.23;4.20;;;;;21.50;94626.00;;;;5069439;28;20206;-87
2023/10/27 12:21:35;;;;;;;9.50;3.50;;;;;21.60;94590.00;;;;5077714;28;20211;-87
2023/10/27 12:24:24;;;;;;;12.87;4.67;;;;;22.80;94577.00;;;;5074063;28;20208;-87
2023/10/27 12:27:15;;;;;;;8.30;3.10;;;;;21.20;94587.00;;;;5067310;28;20196;-88
2023/10/27 12:30:04;;;;;;;19.93;6.47;;;;;19.70;94588.00;;;;5063740;28;20199;-87
2023/10/27 12:32:53;;;;;;;24.37;8.07;;;;;21.20;94580.00;;;;5066117;28;20603;-88
2023/10/27 12:35:42;;;;;;;11.07;3.87;;;;;22.20;94584.00;;;;5059438;28;20219;-87
2023/10/27 12:38:31;;;;;;;16.20;5.93;;;;;23.80;94589.00;;;;5067062;28;20212;-87
2023/10/27 12:41:20;;;;;;;20.20;8.60;;;;;22.50;94604.00;;;;5069579;28;20237;-87
2023/10/27 12:44:11;;;;;;;19.13;8.63;;;;;24.00;94661.00;;;;5069564;28;20711;-88
2023/10/27 12:47:00;;;;;;;30.43;16.63;;;;;25.40;94619.00;;;;5069064;28;20205;-86
2023/10/27 12:49:49;;;;;;;36.60;33.67;;;;;26.60;94638.00;;;;5069134;28;20201;-87
2023/10/27 12:52:38;;;;;;;102.40;97.73;;;;;27.50;94639.00;;;;5069357;28;20209;-86
2023/10/27 12:55:27;;;;;;;185.10;177.77;;;;;27.50;94639.00;;;;5068396;28;20234;-87
2023/10/27 12:58:17;;;;;;;261.95;251.65;;;;;28.70;94646.00;;;;5072155;28;20212;-87
2023/10/27 13:01:07;;;;;;;405.70;387.15;;;;;29.60;94647.00;;;;5074449;28;20194;-88
2023/10/27 13:03:56;;;;;;;468.10;446.05;;;;;29.60;94653.00;;;;5076177;28;20214;-87
2023/10/27 13:06:45;;;;;;;512.97;489.33;;;;;30.00;94664.00;;;;5073722;28;20231;-87
2023/10/27 13:09:36;;;;;;;542.28;516.17;;;;;30.10;94659.00;;;;5070276;28;20222;-87
2023/10/27 13:12:25;;;;;;;571.70;543.95;;;;;30.30;94667.00;;;;5077194;28;20208;-87
2023/10/27 13:15:15;;;;;;;635.05;601.90;;;;;30.60;94683.00;;;;5072871;28;20224;-87
2023/10/27 13:18:06;;;;;;;671.13;634.60;;;;;30.60;94683.00;;;;5076565;28;20202;-87
2023/10/27 13:20:56;;;;;;;975.38;913.42;;;;;29.70;94753.00;;;;5070270;28;20414;-87
2023/10/27 13:23:45;;;;;;;994.45;932.85;;;;;28.50;94696.00;;;;5070868;28;20400;-86
2023/10/27 13:26:34;;;;;;;1003.00;940.72;;;;;29.10;94770.00;;;;5071063;28;20396;-86
2023/10/27 13:29:23;;;;;;;1004.00;942.47;;;;;26.10;94750.00;;;;5065014;28;20388;-87
2023/10/27 13:32:12;;;;;;;991.88;932.13;;;;;25.00;94764.00;;;;5070651;28;20411;-87
2023/10/27 13:35:02;;;;;;;975.92;918.40;;;;;25.00;94750.00;;;;5068905;28;20915;-86
2023/10/27 13:37:53;;;;;;;945.57;890.50;;;;;24.70;94735.00;;;;5068334;28;20407;-86
2023/10/27 13:40:42;;;;;;;916.23;863.90;;;;;24.30;94783.00;;;;5068081;28;20395;-86
2023/10/27 13:43:31;;;;;;;;;;;;;25.30;94749.00;;;;5066252;28;20285;-86
2023/10/27 13:46:19;;;;;;;;;;;;;23.70;94752.00;;;;5070409;28;21443;-85
2023/10/27 13:49:11;;;;;;;;;;;;;24.00;94755.00;;;;5063925;28;19932;-85
2023/10/27 13:52:01;;;;;;;;;;;;;25.60;94796.00;;;;5064123;28;20035;-85
2023/10/27 13:54:50;;;;;;;;;;;;;25.70;94789.00;;;;5065821;28;19920;-86
2023/10/27 13:57:38;;;;;;;;;;;;;25.70;94776.00;;;;5067365;28;20316;-86
2023/10/27 14:00:30;;;;;;;;;;;;;25.10;94845.00;;;;5068021;28;19920;-85
2023/10/27 14:03:19;;;;;;;;;;;;;22.30;94840.00;;;;5066348;28;19929;-83
2023/10/27 14:06:11;;;;;;;;;;;;;22.10;94801.00;;;;5066767;28;20373;-84
2023/10/27 14:09:02;;;;;;;;;;;;;22.80;94858.00;;;;5068633;28;19924;-82
2023/10/27 14:11:51;;;;;;;;;;;;;22.50;94876.00;;;;5068904;28;19944;-83